Time;durP1;ratioP1;P1;durP2;ratioP2;P2;SDS_P1;SDS_P2;PMS_P1;PMS_P2;Temp;Humidity;BMP_temperature;BMP_pressure;BME280_temperature;BME280_humidity;BME280_pressure;Samples;Min_cycle;Max_cycle;Signal;HPM_P1;HPM_P2
2022/06/03 00:00:59;;;;;;;26.20;17.80;;;;;;;12.14;64.43;101121.21;109372;1266;23620;-76
2022/06/03 00:03:37;;;;;;;25.90;19.50;;;;;;;12.05;64.22;101123.30;108829;1270;22006;-76
2022/06/03 00:07:01;;;;;;;25.40;19.50;;;;;;;11.99;64.38;101124.27;109103;1266;24137;-75
2022/06/03 00:09:33;;;;;;;21.10;17.50;;;;;;;11.93;64.55;101121.62;109004;1270;22029;-77
2022/06/03 00:12:30;;;;;;;23.30;19.10;;;;;;;11.92;64.84;101118.17;109174;1270;22096;-76
2022/06/03 00:15:50;;;;;;;20.00;17.30;;;;;;;11.93;64.96;101119.80;108962;1270;21982;-76
2022/06/03 00:19:18;;;;;;;21.00;17.40;;;;;;;11.92;64.94;101121.28;108742;1273;21985;-76
2022/06/03 00:22:03;;;;;;;21.70;17.20;;;;;;;11.91;65.11;101120.38;108610;1271;23760;-75
2022/06/03 00:25:00;;;;;;;22.70;17.50;;;;;;;11.91;65.21;101116.98;108719;1273;22047;-75
2022/06/03 00:27:35;;;;;;;23.50;18.00;;;;;;;11.93;65.24;101115.08;108857;1268;22892;-76
2022/06/03 00:30:28;;;;;;;22.70;17.00;;;;;;;11.92;64.95;101116.73;109553;1264;23676;-75
2022/06/03 00:33:25;;;;;;;22.10;16.70;;;;;;;11.89;64.89;101114.35;109340;1267;22434;-75
2022/06/03 00:36:00;;;;;;;21.30;17.30;;;;;;;11.86;65.01;101114.91;109500;1266;23644;-76
2022/06/03 00:39:08;;;;;;;21.90;16.70;;;;;;;11.84;65.26;101113.34;108824;1270;23071;-75
2022/06/03 00:42:26;;;;;;;22.80;17.80;;;;;;;11.82;65.24;101112.46;108884;1271;22067;-76
2022/06/03 00:45:25;;;;;;;24.00;18.30;;;;;;;11.77;65.33;101110.45;108862;1270;23061;-76
2022/06/03 00:48:36;;;;;;;20.20;17.10;;;;;;;11.73;65.48;101116.90;109310;1266;23163;-76
2022/06/03 00:52:03;;;;;;;22.50;18.20;;;;;;;11.65;65.66;101116.60;108860;1270;21977;-76
2022/06/03 00:54:56;;;;;;;25.30;19.00;;;;;;;11.56;65.68;101117.92;109559;1261;23816;-76
2022/06/03 00:57:53;;;;;;;22.90;17.60;;;;;;;11.47;65.76;101117.95;110112;1257;21995;-76
2022/06/03 01:00:49;;;;;;;21.10;17.60;;;;;;;11.41;65.94;101120.30;110311;1257;23762;-76
2022/06/03 01:03:52;;;;;;;21.40;18.30;;;;;;;11.38;66.07;101123.26;109929;1260;22115;-76
2022/06/03 01:07:18;;;;;;;21.00;17.00;;;;;;;11.39;66.56;101121.58;110230;1257;21958;-76
2022/06/03 01:10:25;;;;;;;21.40;15.60;;;;;;;11.38;66.47;101121.19;109942;1260;23039;-76
2022/06/03 01:13:28;;;;;;;17.20;15.40;;;;;;;11.34;66.46;101122.60;109635;1261;21968;-75
2022/06/03 01:16:25;;;;;;;22.90;17.70;;;;;;;11.32;66.60;101120.90;109942;1260;22018;-75
2022/06/03 01:19:39;;;;;;;19.40;17.20;;;;;;;11.30;66.50;101117.55;110117;1259;21975;-75
2022/06/03 01:22:37;;;;;;;22.30;18.70;;;;;;;11.27;66.64;101119.91;109889;1260;21960;-75
2022/06/03 01:26:06;;;;;;;22.00;18.10;;;;;;;11.23;66.76;101119.61;109993;1260;22015;-75
2022/06/03 01:29:17;;;;;;;22.00;17.70;;;;;;;11.18;66.91;101121.92;109247;1267;22072;-75
2022/06/03 01:32:49;;;;;;;24.40;15.80;;;;;;;11.13;67.08;101123.10;109280;1267;23704;-76
2022/06/03 01:35:36;;;;;;;23.00;16.50;;;;;;;11.10;67.13;101122.02;109147;1268;21982;-76
2022/06/03 01:38:46;;;;;;;22.00;17.90;;;;;;;11.09;67.18;101125.45;109134;1267;23632;-76
2022/06/03 01:41:57;;;;;;;17.80;15.70;;;;;;;11.03;66.98;101127.11;109198;1267;21982;-76
2022/06/03 01:44:41;;;;;;;18.10;14.60;;;;;;;10.89;66.96;101123.37;109453;1263;21971;-75
2022/06/03 01:48:00;;;;;;;21.50;15.80;;;;;;;10.78;67.11;101121.39;109862;1257;21960;-75
2022/06/03 01:51:31;;;;;;;20.00;16.00;;;;;;;10.71;67.62;101117.85;109957;1257;378307;-75
2022/06/03 01:55:06;;;;;;;18.00;15.00;;;;;;;10.71;68.03;101116.14;109615;1264;22831;-76
2022/06/03 01:58:16;;;;;;;21.10;16.40;;;;;;;10.71;68.03;101111.23;108892;1270;21966;-76
2022/06/03 02:00:55;;;;;;;21.30;17.90;;;;;;;10.70;68.02;101114.77;108357;1279;21989;-75
2022/06/03 02:04:24;;;;;;;19.60;15.90;;;;;;;10.70;68.04;101116.02;108300;1273;22319;-75
2022/06/03 02:07:44;;;;;;;17.80;16.00;;;;;;;10.72;68.23;101120.77;108263;1279;22018;-75
2022/06/03 02:10:50;;;;;;;;;;;;;;;10.70;68.23;101117.67;107672;1287;23135;-75
2022/06/03 02:13:48;;;;;;;26.40;18.30;;;;;;;10.61;68.33;101119.23;107987;1286;22022;-75
2022/06/03 02:17:21;;;;;;;19.80;17.70;;;;;;;10.61;68.27;101118.92;108033;1285;22011;-75
2022/06/03 02:20:19;;;;;;;21.80;19.50;;;;;;;10.55;68.11;101119.08;107406;1290;22567;-75
2022/06/03 02:23:27;;;;;;;25.60;20.30;;;;;;;10.60;68.20;101116.12;107991;1279;544545;-75
2022/06/03 02:26:41;;;;;;;22.80;19.40;;;;;;;10.58;68.34;101115.20;109846;1262;21975;-75
2022/06/03 02:30:25;;;;;;;22.00;18.70;;;;;;;10.56;68.46;101117.73;109920;1261;22072;-76
2022/06/03 02:33:20;;;;;;;20.20;17.00;;;;;;;10.50;68.38;101116.08;110406;1256;23678;-75
2022/06/03 02:36:29;;;;;;;21.50;17.20;;;;;;;10.47;68.39;101113.56;110182;1254;238134;-75
2022/06/03 02:39:49;;;;;;;24.70;19.30;;;;;;;10.47;68.50;101117.06;110501;1253;21983;-75
2022/06/03 02:43:01;;;;;;;19.90;17.30;;;;;;;10.44;68.22;101122.17;110129;1258;23693;-76
2022/06/03 02:46:27;;;;;;;26.80;19.50;;;;;;;10.27;68.10;101123.52;110123;1258;22390;-76
2022/06/03 02:49:26;;;;;;;24.70;17.10;;;;;;;10.21;68.48;101127.59;110446;1255;24396;-76
2022/06/03 02:52:25;;;;;;;19.90;15.70;;;;;;;10.22;68.77;101132.76;110404;1256;21963;-76
2022/06/03 02:55:31;;;;;;;90.40;29.00;;;;;;;10.22;68.79;101133.98;110297;1256;22937;-75
2022/06/03 02:58:48;;;;;;;48.20;24.20;;;;;;;10.23;68.96;101132.88;110275;1256;21959;-75
2022/06/03 03:01:55;;;;;;;26.40;20.00;;;;;;;10.21;68.97;101129.17;110009;1259;21961;-76
2022/06/03 03:04:42;;;;;;;22.90;20.00;;;;;;;10.23;69.17;101132.52;109933;1261;21968;-75
2022/06/03 03:07:27;;;;;;;29.30;22.60;;;;;;;10.27;69.22;101129.54;109640;1259;23827;-76
2022/06/03 03:10:43;;;;;;;26.70;21.40;;;;;;;10.26;68.98;101134.76;110283;1258;21959;-76
2022/06/03 03:13:47;;;;;;;27.60;22.70;;;;;;;10.21;69.14;101134.83;110190;1259;21962;-76
2022/06/03 03:16:34;;;;;;;24.40;21.10;;;;;;;10.22;69.49;101131.89;110159;1259;22032;-75
2022/06/03 03:19:27;;;;;;;26.60;20.30;;;;;;;10.30;69.73;101128.39;109841;1259;22068;-75
2022/06/03 03:22:58;;;;;;;24.30;20.10;;;;;;;10.36;69.72;101126.21;110152;1258;23764;-75
2022/06/03 03:25:36;;;;;;;21.90;19.30;;;;;;;10.40;69.51;101139.57;109360;1262;21968;-76
2022/06/03 03:28:35;;;;;;;21.60;18.00;;;;;;;10.38;69.32;101138.86;109785;1262;25017;-76
2022/06/03 03:31:25;;;;;;;22.80;19.60;;;;;;;10.37;69.35;101139.14;110094;1262;21963;-76
2022/06/03 03:34:18;;;;;;;22.10;19.80;;;;;;;10.40;69.64;101142.61;109302;1265;22046;-76
2022/06/03 03:37:20;;;;;;;22.30;19.70;;;;;;;10.44;69.56;101147.15;108848;1271;21984;-75
2022/06/03 03:40:22;;;;;;;21.00;18.90;;;;;;;10.47;69.78;101147.38;108819;1270;22421;-76
2022/06/03 03:43:46;;;;;;;20.50;18.20;;;;;;;10.56;70.02;101145.23;108851;1270;22377;-75
2022/06/03 03:46:37;;;;;;;22.20;19.10;;;;;;;10.67;69.89;101148.44;108839;1271;23619;-74
2022/06/03 03:49:40;;;;;;;25.10;18.60;;;;;;;10.75;69.69;101153.23;108881;1270;23047;-75
2022/06/03 03:53:18;;;;;;;24.50;20.50;;;;;;;10.84;69.64;101154.55;109158;1267;21989;-75
2022/06/03 03:56:48;;;;;;;23.30;20.90;;;;;;;10.85;69.38;101154.56;108740;1270;21993;-76
2022/06/03 03:59:54;;;;;;;22.20;19.90;;;;;;;10.91;69.49;101156.66;108876;1271;23725;-76
2022/06/03 04:03:38;;;;;;;30.70;27.60;;;;;;;10.98;69.40;101163.16;109313;1265;21980;-76
2022/06/03 04:06:58;;;;;;;42.30;38.00;;;;;;;11.04;69.27;101163.47;108877;1271;22460;-76
2022/06/03 04:10:11;;;;;;;40.00;36.40;;;;;;;11.10;69.40;101162.56;108817;1271;22257;-76
2022/06/03 04:13:29;;;;;;;30.50;26.90;;;;;;;11.20;69.56;101161.70;108867;1271;22420;-75
2022/06/03 04:16:29;;;;;;;33.20;29.50;;;;;;;11.33;69.48;101171.39;109477;1265;22765;-75
2022/06/03 04:19:42;;;;;;;33.00;28.40;;;;;;;11.42;69.29;101175.02;110047;1260;21990;-75
2022/06/03 04:22:38;;;;;;;34.10;30.30;;;;;;;11.51;69.13;101173.60;110103;1261;22165;-75
2022/06/03 04:26:17;;;;;;;34.80;28.00;;;;;;;11.61;69.09;101174.52;109322;1265;21991;-76
2022/06/03 04:29:36;;;;;;;33.60;30.10;;;;;;;11.74;68.99;101182.42;108886;1271;21999;-75
2022/06/03 04:32:55;;;;;;;32.00;28.70;;;;;;;11.86;68.81;101185.15;108890;1266;23598;-75
2022/06/03 04:36:25;;;;;;;36.10;32.70;;;;;;;12.02;68.53;101183.89;109459;1265;21988;-76
2022/06/03 04:40:13;;;;;;;35.70;32.50;;;;;;;12.18;68.37;101183.45;110133;1260;21969;-76
2022/06/03 04:43:13;;;;;;;52.50;47.80;;;;;;;12.38;68.05;101184.61;109483;1262;21985;-76
2022/06/03 04:46:16;;;;;;;49.50;44.80;;;;;;;12.55;67.78;101190.25;110075;1262;22013;-76
2022/06/03 04:49:23;;;;;;;39.00;35.60;;;;;;;12.71;67.38;101191.48;110175;1260;23684;-75
2022/06/03 04:52:57;;;;;;;33.40;29.90;;;;;;;12.86;67.00;101188.47;110174;1261;22762;-76
2022/06/03 04:55:55;;;;;;;40.10;35.80;;;;;;;13.03;66.68;101192.96;109241;1267;23692;-76
2022/06/03 04:58:52;;;;;;;32.50;29.60;;;;;;;13.19;66.44;101194.54;109212;1267;23692;-75
2022/06/03 05:02:22;;;;;;;27.30;24.50;;;;;;;13.38;66.05;101193.81;109197;1267;23281;-75
2022/06/03 05:05:13;;;;;;;21.80;19.60;;;;;;;13.62;65.98;101191.55;109801;1261;22724;-77
2022/06/03 05:08:40;;;;;;;23.80;21.30;;;;;;;13.88;65.97;101195.90;110034;1261;21962;-76
2022/06/03 05:11:32;;;;;;;23.00;19.00;;;;;;;14.16;65.15;101204.88;109966;1260;24471;-76
2022/06/03 05:15:01;;;;;;;19.50;17.50;;;;;;;14.35;64.22;101207.54;110165;1255;23679;-77
2022/06/03 05:18:01;;;;;;;19.00;17.20;;;;;;;14.58;63.85;101206.74;110543;1253;21966;-76
2022/06/03 05:21:09;;;;;;;16.90;15.00;;;;;;;14.80;63.35;101211.04;110455;1259;23037;-75
2022/06/03 05:24:34;;;;;;;17.80;16.20;;;;;;;15.04;62.81;101216.66;110200;1259;22905;-76
2022/06/03 05:27:44;;;;;;;16.30;14.70;;;;;;;15.29;62.15;101216.38;109428;1264;21984;-76
2022/06/03 05:30:44;;;;;;;15.10;13.20;;;;;;;15.55;61.21;101216.95;109356;1265;21978;-77
2022/06/03 05:33:45;;;;;;;14.70;13.30;;;;;;;15.81;60.50;101218.17;109440;1265;21992;-76
2022/06/03 05:37:20;;;;;;;16.10;13.40;;;;;;;16.09;59.61;101222.00;109812;1261;23051;-76
2022/06/03 05:40:38;;;;;;;15.50;11.70;;;;;;;16.43;58.93;101224.79;110372;1257;21963;-76
2022/06/03 05:43:53;;;;;;;11.30;10.00;;;;;;;16.82;58.10;101225.05;110252;1257;23009;-76
2022/06/03 05:46:52;;;;;;;11.30;10.10;;;;;;;17.29;57.16;101227.52;110265;1258;21941;-76
2022/06/03 05:49:39;;;;;;;12.80;10.80;;;;;;;17.79;56.77;101223.74;110162;1258;22756;-76
2022/06/03 05:52:41;;;;;;;14.30;11.30;;;;;;;18.33;55.53;101221.16;110359;1258;22065;-81
2022/06/03 05:55:39;;;;;;;13.60;9.70;;;;;;;18.90;53.18;101223.73;110032;1259;21988;-76
2022/06/03 05:58:14;;;;;;;12.10;9.30;;;;;;;19.40;52.09;101226.01;110224;1253;21965;-77
2022/06/03 06:01:13;;;;;;;11.40;9.30;;;;;;;19.88;51.14;101225.39;110736;1253;24348;-76
2022/06/03 06:04:01;;;;;;;10.60;8.50;;;;;;;20.38;49.64;101222.95;110642;1252;21963;-77
2022/06/03 06:06:51;;;;;;;10.20;8.10;;;;;;;20.88;48.36;101222.55;110692;1253;21953;-76
2022/06/03 06:09:50;;;;;;;9.80;6.90;;;;;;;21.40;47.63;101227.80;110213;1257;23026;-76
2022/06/03 06:13:15;;;;;;;7.80;6.90;;;;;;;21.97;46.27;101227.08;110450;1257;21979;-76
2022/06/03 06:16:08;;;;;;;7.90;6.10;;;;;;;22.37;44.46;101222.64;110242;1259;23630;-76
2022/06/03 06:19:04;;;;;;;9.60;6.20;;;;;;;22.72;43.84;101223.10;110328;1259;23613;-77
2022/06/03 06:21:43;;;;;;;7.20;4.70;;;;;;;23.16;42.18;101224.77;109956;1260;22410;-78
2022/06/03 06:24:27;;;;;;;7.30;5.20;;;;;;;23.46;40.40;101223.98;110212;1259;23087;-76
2022/06/03 06:27:30;;;;;;;6.80;4.50;;;;;;;23.75;40.03;101219.37;110363;1254;23661;-76
2022/06/03 06:30:32;;;;;;;7.00;5.30;;;;;;;24.23;39.90;101219.16;110499;1254;22082;-76
2022/06/03 06:33:38;;;;;;;4.90;3.60;;;;;;;24.62;38.22;101221.67;110657;1253;21972;-76
2022/06/03 06:36:39;;;;;;;5.30;3.30;;;;;;;24.95;37.33;101216.56;110672;1253;21968;-76
2022/06/03 06:39:29;;;;;;;7.90;3.30;;;;;;;25.12;35.40;101219.34;110587;1248;23748;-76
2022/06/03 06:42:13;;;;;;;5.30;3.40;;;;;;;25.22;34.92;101222.91;111023;1248;24353;-76
2022/06/03 06:45:02;;;;;;;4.20;3.00;;;;;;;25.34;34.48;101222.79;111133;1247;24261;-76
2022/06/03 06:47:42;;;;;;;4.30;3.40;;;;;;;25.54;34.14;101219.50;110752;1247;23676;-76
2022/06/03 06:50:25;;;;;;;4.50;3.50;;;;;;;25.66;31.73;101220.45;111089;1247;22361;-75
2022/06/03 06:53:12;;;;;;;5.50;3.60;;;;;;;25.62;31.83;101221.02;111088;1247;22411;-75
2022/06/03 06:55:54;;;;;;;4.40;2.50;;;;;;;25.76;32.32;101221.42;110778;1253;21989;-76
2022/06/03 06:58:50;;;;;;;3.20;2.50;;;;;;;25.96;32.04;101217.55;110512;1254;23634;-80
2022/06/03 07:01:32;;;;;;;5.10;3.30;;;;;;;26.17;31.85;101210.75;110200;1259;23572;-76
2022/06/03 07:04:12;;;;;;;4.40;3.20;;;;;;;26.29;30.49;101210.80;110080;1259;22088;-76
2022/06/03 07:06:47;;;;;;;4.60;3.00;;;;;;;26.40;30.72;101210.98;110237;1257;22060;-76
2022/06/03 07:09:37;;;;;;;7.00;4.50;;;;;;;26.58;30.75;101207.67;109878;1260;22737;-77
2022/06/03 07:12:43;;;;;;;4.50;2.80;;;;;;;26.67;29.68;101209.02;110252;1257;23034;-76
2022/06/03 07:16:09;;;;;;;3.80;3.00;;;;;;;26.80;29.57;101207.35;110405;1255;24434;-76
2022/06/03 07:22:06;;;;;;;11.60;6.80;;;;;;;27.19;29.60;101203.19;110541;1253;23792;-77
2022/06/03 07:25:08;;;;;;;23.50;6.10;;;;;;;27.38;28.77;101199.67;110164;1260;21966;-76
2022/06/03 07:28:16;;;;;;;16.20;6.50;;;;;;;27.64;29.12;101198.02;110558;1255;22106;-76
2022/06/03 07:31:25;;;;;;;14.00;5.90;;;;;;;27.93;28.36;101193.39;110038;1259;22840;-76
2022/06/03 07:34:09;;;;;;;6.50;3.90;;;;;;;28.01;28.11;101193.39;108883;1271;22066;-76
2022/06/03 07:37:01;;;;;;;6.50;4.70;;;;;;;28.10;27.35;101193.38;108798;1271;22042;-77
2022/06/03 07:39:48;;;;;;;10.30;5.10;;;;;;;28.23;27.63;101189.20;108822;1271;22265;-77
2022/06/03 07:42:23;;;;;;;4.70;3.80;;;;;;;28.41;27.37;101185.98;109003;1268;21981;-76
2022/06/03 07:45:39;;;;;;;4.20;3.70;;;;;;;28.42;26.28;101184.19;109434;1265;21986;-76
2022/06/03 07:48:22;;;;;;;3.00;2.80;;;;;;;28.34;25.67;101184.45;109613;1265;21960;-76
2022/06/03 07:51:23;;;;;;;3.00;2.50;;;;;;;28.29;25.68;101184.89;109537;1265;22164;-77
2022/06/03 07:54:18;;;;;;;6.20;2.40;;;;;;;28.32;25.81;101185.11;110014;1259;21975;-76
2022/06/03 07:56:47;;;;;;;4.40;2.00;;;;;;;28.50;25.81;101182.19;110176;1260;22889;-76
2022/06/03 07:59:19;;;;;;;2.30;1.50;;;;;;;28.61;25.39;101176.20;109733;1262;23084;-76
2022/06/03 08:02:15;;;;;;;2.50;0.90;;;;;;;28.75;25.16;101174.15;110107;1262;22007;-78
2022/06/03 08:05:08;;;;;;;2.60;1.30;;;;;;;28.85;24.70;101169.23;110058;1260;22787;-77
2022/06/03 08:11:00;;;;;;;3.20;0.90;;;;;;;28.98;23.56;101177.86;109461;1259;22283;-77
2022/06/03 08:13:37;;;;;;;1.50;1.00;;;;;;;28.86;22.96;101181.09;109441;1259;23703;-77
2022/06/03 08:16:41;;;;;;;1.30;0.90;;;;;;;28.67;22.88;101172.73;110194;1260;21998;-78
2022/06/03 08:19:18;;;;;;;1.70;1.00;;;;;;;28.69;22.92;101174.63;110245;1257;23723;-77
2022/06/03 08:21:58;;;;;;;1.20;0.80;;;;;;;28.66;23.36;101172.02;109038;1265;23074;-77
2022/06/03 08:24:38;;;;;;;2.30;1.20;;;;;;;28.64;22.86;101175.83;109319;1264;23044;-78
2022/06/03 08:27:15;;;;;;;2.00;0.90;;;;;;;28.46;22.86;101177.89;109272;1265;22037;-77
2022/06/03 08:29:59;;;;;;;2.60;1.20;;;;;;;28.39;22.94;101179.54;109637;1261;21973;-77
2022/06/03 08:32:39;;;;;;;1.60;0.80;;;;;;;28.31;22.17;101182.59;110110;1258;23721;-78
2022/06/03 08:35:23;;;;;;;2.40;0.80;;;;;;;28.07;22.29;101182.33;110222;1257;22066;-76
2022/06/03 08:37:57;;;;;;;4.50;1.00;;;;;;;28.10;22.96;101181.32;110214;1257;23641;-77
2022/06/03 08:41:15;;;;;;;3.90;0.90;;;;;;;28.30;23.60;101176.79;110657;1249;22828;-78
2022/06/03 08:44:22;;;;;;;2.10;0.80;;;;;;;28.64;23.66;101173.96;110679;1253;23002;-77
2022/06/03 08:47:21;;;;;;;3.80;0.90;;;;;;;28.87;23.38;101181.95;111065;1256;22016;-77
2022/06/03 08:50:27;;;;;;;1.80;0.90;;;;;;;29.10;23.47;101179.60;112244;1244;22365;-78
2022/06/03 08:53:05;;;;;;;2.60;1.20;;;;;;;29.28;22.65;101179.17;111709;1250;21950;-77
2022/06/03 08:55:47;;;;;;;1.80;0.80;;;;;;;29.39;22.11;101181.56;112207;1250;21953;-77
2022/06/03 08:58:42;;;;;;;1.50;1.20;;;;;;;29.32;21.71;101170.04;111810;1239;22001;-76
2022/06/03 09:01:25;;;;;;;1.50;0.80;;;;;;;29.29;21.98;101168.02;112000;1241;21954;-77
2022/06/03 09:04:29;;;;;;;3.50;0.70;;;;;;;29.13;21.78;101163.56;111561;1248;22157;-77
2022/06/03 09:07:23;;;;;;;1.80;0.90;;;;;;;29.07;21.94;101163.43;111594;1247;22001;-77
2022/06/03 09:10:22;;;;;;;1.40;0.60;;;;;;;28.84;22.03;101158.99;111116;1254;22341;-77
2022/06/03 09:13:13;;;;;;;1.60;0.90;;;;;;;28.92;22.66;101162.92;110020;1260;22016;-77
2022/06/03 09:15:46;;;;;;;1.80;0.80;;;;;;;28.84;21.99;101163.40;109610;1261;21972;-77
2022/06/03 09:18:31;;;;;;;2.60;0.90;;;;;;;28.92;22.88;101160.91;109371;1267;22686;-78
2022/06/03 09:21:10;;;;;;;3.30;0.90;;;;;;;29.12;22.76;101159.63;109535;1266;22085;-77
2022/06/03 09:23:54;;;;;;;3.00;0.70;;;;;;;29.12;21.90;101158.02;109305;1267;21979;-77
2022/06/03 09:26:37;;;;;;;2.40;1.00;;;;;;;29.10;22.30;101157.59;109332;1266;23694;-77
2022/06/03 09:29:12;;;;;;;1.70;0.70;;;;;;;29.38;22.88;101156.73;109182;1267;23019;-78
2022/06/03 09:31:59;;;;;;;1.50;1.10;;;;;;;29.57;22.48;101156.98;109206;1267;22142;-78
2022/06/03 09:34:43;;;;;;;1.60;0.70;;;;;;;29.69;22.37;101157.31;109313;1267;23615;-77
2022/06/03 09:37:42;;;;;;;2.30;1.20;;;;;;;29.60;21.69;101160.81;109500;1266;23217;-77
2022/06/03 09:40:20;;;;;;;4.50;1.00;;;;;;;29.41;21.73;101154.73;109334;1267;21980;-79
2022/06/03 09:43:41;;;;;;;3.40;0.90;;;;;;;29.46;21.52;101151.50;110549;1238;22843;31
2022/06/03 09:46:16;;;;;;;2.10;0.80;;;;;;;29.29;21.17;101147.99;110778;1259;22020;-79
2022/06/03 09:48:47;;;;;;;2.20;1.90;;;;;;;29.14;21.34;101150.55;111041;1258;22533;-77
2022/06/03 09:51:55;;;;;;;3.40;3.10;;;;;;;28.89;21.54;101151.13;111183;1249;21982;-78
2022/06/03 09:54:44;;;;;;;1.80;1.10;;;;;;;28.90;22.03;101147.48;112060;1247;22422;-77
2022/06/03 09:57:33;;;;;;;2.70;1.60;;;;;;;28.72;21.51;101145.45;111035;1254;22028;-78
2022/06/03 10:00:45;;;;;;;3.00;2.70;;;;;;;28.66;22.49;101140.22;110870;1254;23081;-77
2022/06/03 10:03:16;;;;;;;1.90;1.20;;;;;;;28.80;22.61;101144.59;110505;1256;21960;-77
2022/06/03 10:05:55;;;;;;;1.80;1.20;;;;;;;28.76;21.76;101148.38;111027;1256;21989;-78
2022/06/03 10:12:48;;;;;;;51.70;47.10;;;;;;;28.53;21.85;101140.45;111057;1251;21966;-78
2022/06/03 10:14:10;;;;;;;6.60;6.00;;;;;;;28.15;21.78;101136.08;109425;1264;22749;-79
2022/06/03 10:16:39;;;;;;;4.00;2.40;;;;;;;28.05;22.59;101134.85;109232;1265;23586;-78
2022/06/03 10:19:09;;;;;;;5.70;1.40;;;;;;;28.23;23.09;101129.75;109195;1265;21984;-77
2022/06/03 10:21:50;;;;;;;2.40;1.00;;;;;;;28.31;22.83;101128.33;109006;1269;23052;-77
2022/06/03 10:24:30;;;;;;;3.50;1.30;;;;;;;28.20;22.77;101127.96;108959;1270;22201;-77
2022/06/03 10:27:02;;;;;;;5.60;1.80;;;;;;;28.10;22.98;101119.55;108906;1270;22102;-78
2022/06/03 10:29:31;;;;;;;1.50;0.90;;;;;;;27.93;22.71;101119.70;108782;1271;21991;-78
2022/06/03 10:32:07;;;;;;;1.50;1.00;;;;;;;27.82;22.65;101120.13;108741;1270;22031;-77
2022/06/03 10:34:40;;;;;;;1.30;0.80;;;;;;;27.70;22.90;101114.39;108905;1270;21998;-76
2022/06/03 10:37:14;;;;;;;2.40;1.50;;;;;;;27.65;22.43;101106.94;109082;1267;21973;-77
2022/06/03 10:39:44;;;;;;;3.70;1.00;;;;;;;27.57;22.30;101106.56;109014;1268;24322;-76
2022/06/03 10:42:21;;;;;;;5.60;1.40;;;;;;;27.37;22.71;101106.23;108938;1268;22139;-78
2022/06/03 10:44:57;;;;;;;3.20;2.50;;;;;;;27.18;23.33;101100.23;108986;1270;21982;-77
2022/06/03 10:47:38;;;;;;;2.30;1.00;;;;;;;26.87;23.66;101090.64;109600;1256;22036;-77
2022/06/03 10:50:27;;;;;;;1.80;1.10;;;;;;;26.49;23.99;101089.13;109996;1257;22058;-77
2022/06/03 11:02:39;;;;;;;2.20;1.00;;;;;;;25.54;26.05;101073.52;109229;1266;22160;-77
2022/06/03 11:05:22;;;;;;;2.50;1.50;;;;;;;25.39;25.99;101072.86;109204;1268;22065;-77
2022/06/03 11:07:58;;;;;;;5.20;1.40;;;;;;;25.19;26.00;101072.14;108836;1273;21982;-77
2022/06/03 11:10:42;;;;;;;1.60;0.90;;;;;;;25.07;26.18;101071.67;108752;1272;22034;-78
2022/06/03 11:13:39;;;;;;;2.70;1.50;;;;;;;24.96;26.32;101069.29;108593;1273;22047;-77
2022/06/03 11:16:21;;;;;;;2.30;1.00;;;;;;;24.89;26.81;101069.16;108825;1273;23853;-78
2022/06/03 11:18:51;;;;;;;3.50;3.20;;;;;;;24.88;27.27;101069.67;108717;1273;22049;-78
2022/06/03 11:21:26;;;;;;;1.80;1.20;;;;;;;24.91;27.36;101063.57;108506;1274;22330;-77
2022/06/03 11:24:00;;;;;;;2.00;1.00;;;;;;;24.90;27.08;101060.60;108639;1274;22041;-79
2022/06/03 11:26:37;;;;;;;4.80;1.30;;;;;;;24.85;27.08;101056.51;109079;1267;22956;-77
2022/06/03 11:29:30;;;;;;;3.20;1.20;;;;;;;24.83;27.50;101055.62;108955;1268;23686;-78
2022/06/03 11:32:02;;;;;;;4.10;0.90;;;;;;;24.81;27.58;101053.84;108936;1267;21976;-78
2022/06/03 11:34:40;;;;;;;1.60;0.90;;;;;;;24.72;26.95;101057.75;109209;1264;22305;-77
2022/06/03 11:37:23;;;;;;;1.80;1.10;;;;;;;24.59;26.93;101054.83;109379;1264;23048;-78
2022/06/03 11:40:10;;;;;;;2.10;0.90;;;;;;;24.56;27.22;101050.07;108957;1267;21991;-78
2022/06/03 11:43:03;;;;;;;1.60;0.70;;;;;;;24.56;27.31;101046.52;108984;1267;22094;-77
2022/06/03 11:45:48;;;;;;;1.70;0.90;;;;;;;24.54;27.35;101040.43;109076;1268;23777;-78
2022/06/03 11:48:38;;;;;;;1.80;1.20;;;;;;;24.54;27.65;101039.95;108934;1267;22856;-78
2022/06/03 11:51:09;;;;;;;3.40;1.30;;;;;;;24.58;27.79;101039.40;109216;1266;22064;-78
2022/06/03 11:53:47;;;;;;;2.90;1.30;;;;;;;24.57;27.15;101038.30;109320;1262;21969;-79
2022/06/03 11:56:24;;;;;;;1.60;0.90;;;;;;;24.52;27.41;101030.40;109336;1262;23745;-78
2022/06/03 11:59:12;;;;;;;1.60;0.90;;;;;;;24.57;27.58;101028.20;109820;1257;22056;-78
2022/06/03 12:02:13;;;;;;;1.50;0.50;;;;;;;24.58;27.28;101021.32;110277;1258;21970;-78
2022/06/03 12:05:02;;;;;;;2.40;1.70;;;;;;;24.53;26.65;101017.52;110248;1257;21971;-79
2022/06/03 12:08:07;;;;;;;4.70;1.10;;;;;;;24.50;26.64;101010.55;110079;1257;22042;-79
2022/06/03 12:11:06;;;;;;;2.20;0.90;;;;;;;24.47;26.67;101011.63;110261;1257;23696;-78
2022/06/03 12:13:43;;;;;;;1.20;0.70;;;;;;;24.38;26.73;101012.37;110281;1257;22082;-78
2022/06/03 12:16:18;;;;;;;4.20;0.90;;;;;;;24.28;26.66;101005.75;110377;1256;21977;-78
2022/06/03 12:19:04;;;;;;;1.20;0.90;;;;;;;24.22;26.93;101009.25;110306;1256;22014;-79
2022/06/03 12:21:38;;;;;;;4.30;1.90;;;;;;;24.23;27.08;101006.97;110212;1257;21985;-77
2022/06/03 12:24:29;;;;;;;2.30;1.40;;;;;;;24.32;27.52;101006.90;109759;1264;21975;-78
2022/06/03 12:27:04;;;;;;;2.80;1.00;;;;;;;24.41;27.57;100999.90;109575;1262;22431;-78
2022/06/03 12:29:45;;;;;;;2.70;1.20;;;;;;;24.46;27.63;101001.83;109583;1262;21969;-78
2022/06/03 12:32:29;;;;;;;1.30;0.60;;;;;;;24.51;27.56;100999.20;109288;1262;23038;-78
2022/06/03 12:35:42;;;;;;;2.30;0.70;;;;;;;24.51;27.43;100992.03;109588;1262;23058;-77
2022/06/03 12:38:23;;;;;;;1.40;0.90;;;;;;;24.48;27.48;100993.81;109216;1267;23680;-78
2022/06/03 12:40:56;;;;;;;2.20;0.90;;;;;;;24.43;27.30;100989.79;109223;1267;22751;-78
2022/06/03 12:43:28;;;;;;;1.30;0.80;;;;;;;24.40;26.97;100987.83;109254;1267;21979;-78
2022/06/03 12:46:40;;;;;;;1.60;0.90;;;;;;;24.40;27.21;100982.54;109225;1267;22426;-78
2022/06/03 12:50:05;;;;;;;1.70;0.70;;;;;;;24.44;27.72;100980.88;108877;1270;21993;-77
2022/06/03 12:52:40;;;;;;;1.50;0.80;;;;;;;24.48;27.67;100980.42;108026;1282;23651;-78
2022/06/03 12:55:12;;;;;;;1.40;0.70;;;;;;;24.51;27.34;100977.02;108008;1285;22003;-79
2022/06/03 12:58:02;;;;;;;3.10;1.00;;;;;;;24.47;26.45;100972.84;107988;1282;23027;-79
2022/06/03 13:00:48;;;;;;;3.30;1.10;;;;;;;24.36;26.04;100963.23;107915;1282;21993;-79
2022/06/03 13:03:17;;;;;;;1.90;1.00;;;;;;;24.30;26.25;100962.27;107806;1285;22247;-78
2022/06/03 13:05:52;;;;;;;3.90;1.20;;;;;;;24.24;26.50;100957.41;107886;1282;22055;-78
2022/06/03 13:11:55;;;;;;;2.60;0.90;;;;;;;24.22;26.39;100943.23;107581;1288;23575;-79
2022/06/03 13:14:40;;;;;;;2.80;1.10;;;;;;;24.20;26.64;100941.30;107359;1290;22009;-78
2022/06/03 13:17:47;;;;;;;1.70;0.60;;;;;;;24.22;26.72;100940.59;107927;1282;23835;-79
2022/06/03 13:20:36;;;;;;;3.90;1.60;;;;;;;24.19;26.39;100938.11;107597;1288;23696;-77
2022/06/03 13:23:34;;;;;;;4.40;2.50;;;;;;;24.24;26.25;100939.09;107569;1288;23167;-78
2022/06/03 13:26:29;;;;;;;3.10;1.40;;;;;;;24.27;26.11;100925.81;107750;1285;23081;-77
2022/06/03 13:29:02;;;;;;;1.80;1.20;;;;;;;24.30;26.24;100920.89;108206;1272;22060;-78
2022/06/03 13:31:40;;;;;;;4.00;1.20;;;;;;;24.30;25.78;100920.63;108937;1271;21985;-78
2022/06/03 13:34:12;;;;;;;1.70;0.90;;;;;;;24.30;25.66;100917.71;108930;1270;22036;-78
2022/06/03 13:36:50;;;;;;;1.80;0.90;;;;;;;24.32;25.79;100912.39;108979;1270;23599;-77
2022/06/03 13:39:27;;;;;;;1.30;0.80;;;;;;;24.34;26.01;100907.52;109326;1265;23641;-77
2022/06/03 13:45:00;;;;;;;;;;;;;;;24.35;26.14;100896.70;109368;1265;21954;-78